createdAt,value
2018-03-07T00:02:15.902Z,1.60
2018-03-07T00:04:43.597Z,1.60
2018-03-07T00:07:11.165Z,1.60
2018-03-07T00:09:38.769Z,1.60
2018-03-07T00:12:06.351Z,1.60
2018-03-07T00:14:33.967Z,1.70
2018-03-07T00:17:01.564Z,1.70
2018-03-07T00:19:29.173Z,1.70
2018-03-07T00:21:56.742Z,1.70
2018-03-07T00:24:24.359Z,1.70
2018-03-07T00:26:51.928Z,1.70
2018-03-07T00:29:19.529Z,1.60
2018-03-07T00:31:47.103Z,1.60
2018-03-07T00:34:14.737Z,1.60
2018-03-07T00:36:42.331Z,1.50
2018-03-07T00:39:09.903Z,1.50
2018-03-07T00:41:37.510Z,1.50
2018-03-07T00:44:05.846Z,1.40
2018-03-07T00:46:33.459Z,1.40
2018-03-07T00:49:01.067Z,1.40
2018-03-07T00:51:28.639Z,1.40
2018-03-07T00:53:56.241Z,1.40
2018-03-07T00:56:24.569Z,1.50
2018-03-07T00:58:52.184Z,1.50
2018-03-07T01:01:19.753Z,1.50
2018-03-07T01:03:47.356Z,1.50
2018-03-07T01:06:14.935Z,1.50
2018-03-07T01:08:42.545Z,1.50
2018-03-07T01:11:10.121Z,1.50
2018-03-07T01:13:37.720Z,1.50
2018-03-07T01:16:05.326Z,1.60
2018-03-07T01:18:32.901Z,1.50
2018-03-07T01:21:00.517Z,1.60
2018-03-07T01:23:28.856Z,1.60
2018-03-07T01:25:56.422Z,1.60
2018-03-07T01:28:24.030Z,1.60
2018-03-07T01:30:52.405Z,1.50
2018-03-07T01:33:20.776Z,1.50
2018-03-07T01:35:48.379Z,1.40
2018-03-07T01:38:15.986Z,1.50
2018-03-07T01:40:43.562Z,1.50
2018-03-07T01:43:11.966Z,1.50
2018-03-07T01:45:39.672Z,1.50
2018-03-07T01:48:07.276Z,1.60
2018-03-07T01:50:34.847Z,1.70
2018-03-07T01:53:02.505Z,1.80
2018-03-07T01:55:30.085Z,1.90
2018-03-07T01:57:57.739Z,2.00
2018-03-07T02:00:25.343Z,2.10
2018-03-07T02:02:52.937Z,2.20
2018-03-07T02:05:20.541Z,2.20
2018-03-07T02:07:48.121Z,2.20
2018-03-07T02:12:48.589Z,2.20
2018-03-07T02:15:16.294Z,2.20
2018-03-07T02:17:43.858Z,2.20
2018-03-07T02:20:11.422Z,2.20
2018-03-07T02:22:39.034Z,2.20
2018-03-07T02:25:06.598Z,2.20
2018-03-07T02:27:34.228Z,2.10
2018-03-07T02:30:01.795Z,2.10
2018-03-07T02:32:30.138Z,2.10
2018-03-07T02:34:57.731Z,2.10
2018-03-07T02:37:25.356Z,2.10
2018-03-07T02:39:52.938Z,2.10
2018-03-07T02:42:20.550Z,2.20
2018-03-07T02:44:48.173Z,2.20
2018-03-07T02:47:15.765Z,2.20
2018-03-07T02:49:43.412Z,2.20
2018-03-07T02:52:10.981Z,2.20
2018-03-07T02:54:38.604Z,2.20
2018-03-07T02:57:06.174Z,2.20
2018-03-07T02:59:33.754Z,2.20
2018-03-07T03:02:01.372Z,2.20
2018-03-07T03:04:28.952Z,2.20
2018-03-07T03:06:56.563Z,2.20
2018-03-07T03:09:24.898Z,2.20
2018-03-07T03:11:52.610Z,2.10
2018-03-07T03:14:20.203Z,2.20
2018-03-07T03:16:47.771Z,2.20
2018-03-07T03:19:15.387Z,2.20
2018-03-07T03:21:43.733Z,2.20
2018-03-07T03:24:11.332Z,2.20
2018-03-07T03:26:38.902Z,2.20
2018-03-07T03:29:07.277Z,2.20
2018-03-07T03:31:35.629Z,2.20
2018-03-07T03:34:03.248Z,2.20
2018-03-07T03:36:30.854Z,2.10
2018-03-07T03:38:58.428Z,2.20
2018-03-07T03:41:26.799Z,2.20
2018-03-07T03:43:54.374Z,2.20
2018-03-07T03:46:22.014Z,2.20
2018-03-07T03:48:49.591Z,2.20
2018-03-07T03:51:17.204Z,2.20
2018-03-07T03:53:44.769Z,2.20
2018-03-07T03:56:12.374Z,2.20
2018-03-07T03:58:39.995Z,2.20
2018-03-07T04:01:07.563Z,2.20
2018-03-07T04:03:35.191Z,2.30
2018-03-07T04:06:02.762Z,2.20
2018-03-07T04:08:30.378Z,2.20
2018-03-07T04:13:31.550Z,2.20
2018-03-07T04:15:59.884Z,2.20
2018-03-07T04:18:27.450Z,2.20
2018-03-07T04:20:55.065Z,2.20
2018-03-07T04:23:22.671Z,2.20
2018-03-07T04:25:50.295Z,2.20
2018-03-07T04:28:17.868Z,2.20
2018-03-07T04:30:45.479Z,2.20
2018-03-07T04:33:13.053Z,2.20
2018-03-07T04:35:41.436Z,2.20
2018-03-07T04:38:09.043Z,2.10
2018-03-07T04:40:36.626Z,2.20
2018-03-07T04:43:04.242Z,2.20
2018-03-07T04:45:31.813Z,2.20
2018-03-07T04:47:59.381Z,2.10
2018-03-07T04:50:26.990Z,2.10
2018-03-07T04:52:54.675Z,2.10
2018-03-07T04:55:23.013Z,2.10
2018-03-07T04:57:50.637Z,2.10
2018-03-07T05:00:18.220Z,2.20
2018-03-07T05:02:45.812Z,2.20
2018-03-07T05:05:14.202Z,2.20
2018-03-07T05:07:42.551Z,2.20
2018-03-07T05:10:10.167Z,2.20
2018-03-07T05:12:37.755Z,2.20
2018-03-07T05:15:05.377Z,2.20
2018-03-07T05:17:32.951Z,2.20
2018-03-07T05:20:00.522Z,2.20
2018-03-07T05:22:28.141Z,2.10
2018-03-07T05:24:55.711Z,2.10
2018-03-07T05:27:24.051Z,2.10
2018-03-07T05:29:51.650Z,2.10
2018-03-07T05:32:19.236Z,2.10
2018-03-07T05:34:46.859Z,2.10
2018-03-07T05:37:14.479Z,2.10
2018-03-07T05:39:42.050Z,2.10
2018-03-07T05:42:09.618Z,2.00
2018-03-07T05:44:37.235Z,2.10
2018-03-07T05:47:04.812Z,2.00
2018-03-07T05:49:32.419Z,2.00
2018-03-07T05:51:59.990Z,2.00
2018-03-07T05:54:27.602Z,2.00
2018-03-07T05:56:55.219Z,2.00
2018-03-07T05:59:22.790Z,2.00
2018-03-07T06:01:50.356Z,2.00
2018-03-07T06:04:18.718Z,2.00
2018-03-07T06:06:46.326Z,1.90
2018-03-07T06:09:13.950Z,2.00
2018-03-07T06:11:42.292Z,2.00
2018-03-07T06:14:09.859Z,1.90
2018-03-07T06:16:37.466Z,2.00
2018-03-07T06:19:05.035Z,2.00
2018-03-07T06:21:32.651Z,2.00
2018-03-07T06:24:00.228Z,2.00
2018-03-07T06:26:28.567Z,2.00
2018-03-07T06:28:56.217Z,2.00
2018-03-07T06:31:23.823Z,2.00
2018-03-07T06:33:51.392Z,2.00
2018-03-07T06:36:18.992Z,2.00
2018-03-07T06:38:46.577Z,2.00
2018-03-07T06:41:14.188Z,2.00
2018-03-07T06:43:42.567Z,2.10
2018-03-07T06:46:10.898Z,2.10
2018-03-07T06:48:38.506Z,2.10
2018-03-07T06:51:06.896Z,2.10
2018-03-07T06:53:34.469Z,2.10
2018-03-07T06:56:02.045Z,2.10
2018-03-07T06:58:29.651Z,2.10
2018-03-07T07:00:57.227Z,2.10
2018-03-07T07:03:24.834Z,2.10
2018-03-07T07:05:52.449Z,2.10
2018-03-07T07:08:20.046Z,2.10
2018-03-07T07:10:47.614Z,2.10
2018-03-07T07:13:15.227Z,2.10
2018-03-07T07:15:43.613Z,2.20
2018-03-07T07:18:11.955Z,2.20
2018-03-07T07:20:39.575Z,2.20
2018-03-07T07:23:07.228Z,2.20
2018-03-07T07:25:34.835Z,2.20
2018-03-07T07:28:02.442Z,2.20
2018-03-07T07:30:30.822Z,2.30
2018-03-07T07:32:59.162Z,2.20
2018-03-07T07:35:26.774Z,2.20
2018-03-07T07:37:54.342Z,2.30
2018-03-07T07:40:21.959Z,2.30
2018-03-07T07:42:49.596Z,2.30
2018-03-07T07:45:17.157Z,2.30
2018-03-07T07:47:44.782Z,2.30
2018-03-07T07:50:12.549Z,2.40
2018-03-07T07:52:40.205Z,2.40
2018-03-07T07:55:07.774Z,2.40
2018-03-07T07:57:35.378Z,2.50
2018-03-07T08:00:03.004Z,2.50
2018-03-07T08:02:30.617Z,2.50
2018-03-07T08:04:58.229Z,2.50
2018-03-07T08:07:25.834Z,2.60
2018-03-07T08:09:53.448Z,2.60
2018-03-07T08:12:21.017Z,2.60
2018-03-07T08:14:48.630Z,2.60
2018-03-07T08:17:16.206Z,2.60
2018-03-07T08:19:44.583Z,2.70
2018-03-07T08:22:12.926Z,2.70
2018-03-07T08:24:40.535Z,2.70
2018-03-07T08:27:08.111Z,2.70
2018-03-07T08:29:35.714Z,2.80
2018-03-07T08:32:03.326Z,2.80
2018-03-07T08:34:30.891Z,2.80
2018-03-07T08:36:58.498Z,2.90
2018-03-07T08:39:26.110Z,2.90
2018-03-07T08:41:53.681Z,2.90
2018-03-07T08:44:21.300Z,2.90
2018-03-07T08:46:48.866Z,3.00
2018-03-07T08:49:17.254Z,3.10
2018-03-07T08:51:44.864Z,3.10
2018-03-07T08:54:12.453Z,3.20
2018-03-07T08:56:40.061Z,3.30
2018-03-07T08:59:07.636Z,3.30
2018-03-07T09:01:35.272Z,3.40
2018-03-07T09:04:02.843Z,3.50
2018-03-07T09:06:30.416Z,3.50
2018-03-07T09:08:58.028Z,3.60
2018-03-07T09:11:25.599Z,3.70
2018-03-07T09:13:53.214Z,3.70
2018-03-07T09:16:20.791Z,3.70
2018-03-07T09:18:48.401Z,3.80
2018-03-07T09:21:16.017Z,3.80
2018-03-07T09:23:43.612Z,3.80
2018-03-07T09:26:11.982Z,3.60
2018-03-07T09:28:39.550Z,3.60
2018-03-07T09:31:07.971Z,3.70
2018-03-07T09:33:35.542Z,3.60
2018-03-07T09:36:03.183Z,3.70
2018-03-07T09:38:30.757Z,3.80
2018-03-07T09:40:58.329Z,3.90
2018-03-07T09:43:25.933Z,3.90
2018-03-07T09:45:53.505Z,4.10
2018-03-07T09:48:21.119Z,4.10
2018-03-07T09:50:48.696Z,4.10
2018-03-07T09:53:16.301Z,4.20
2018-03-07T09:55:43.878Z,4.20
2018-03-07T09:58:11.594Z,4.30
2018-03-07T10:00:39.166Z,4.30
2018-03-07T10:03:07.502Z,4.30
2018-03-07T10:05:35.115Z,4.30
2018-03-07T10:08:02.692Z,4.40
2018-03-07T10:10:30.299Z,4.40
2018-03-07T10:12:57.876Z,4.40
2018-03-07T10:15:26.254Z,4.60
2018-03-07T10:17:53.858Z,4.60
2018-03-07T10:20:21.423Z,4.70
2018-03-07T10:22:49.035Z,4.80
2018-03-07T10:25:17.399Z,4.80
2018-03-07T10:27:44.978Z,4.80
2018-03-07T10:30:13.346Z,4.90
2018-03-07T10:32:40.958Z,4.80
2018-03-07T10:35:08.540Z,4.90
2018-03-07T10:37:36.137Z,5.00
2018-03-07T10:40:03.788Z,5.20
2018-03-07T10:42:31.353Z,5.20
2018-03-07T10:44:58.966Z,5.30
2018-03-07T10:47:26.559Z,5.30
2018-03-07T10:49:54.175Z,5.30
2018-03-07T10:52:21.757Z,5.40
2018-03-07T10:54:49.332Z,5.40
2018-03-07T10:57:16.948Z,5.50
2018-03-07T10:59:45.287Z,5.60
2018-03-07T11:02:12.911Z,5.60
2018-03-07T11:04:40.473Z,5.60
2018-03-07T11:07:08.045Z,5.70
2018-03-07T11:09:35.809Z,5.70
2018-03-07T11:12:03.370Z,5.70
2018-03-07T11:14:30.942Z,5.70
2018-03-07T11:16:58.566Z,5.70
2018-03-07T11:19:26.134Z,5.70
2018-03-07T11:21:53.954Z,5.70
2018-03-07T11:24:21.530Z,5.60
2018-03-07T11:26:49.102Z,5.60
2018-03-07T11:29:17.475Z,5.60
2018-03-07T11:31:45.824Z,5.60
2018-03-07T11:34:13.470Z,5.60
2018-03-07T11:36:41.036Z,5.70
2018-03-07T11:39:08.623Z,5.70
2018-03-07T11:41:36.229Z,5.80
2018-03-07T11:44:03.803Z,5.80
2018-03-07T11:46:31.408Z,5.80
2018-03-07T11:48:58.983Z,5.70
2018-03-07T11:51:27.386Z,5.70
2018-03-07T11:53:54.945Z,5.70
2018-03-07T11:56:22.520Z,5.70
2018-03-07T11:58:50.137Z,5.80
2018-03-07T12:01:18.521Z,5.80
2018-03-07T12:03:46.850Z,5.80
2018-03-07T12:06:14.450Z,5.80
2018-03-07T12:08:42.071Z,5.80
2018-03-07T12:11:09.682Z,5.80
2018-03-07T12:13:38.018Z,5.80
2018-03-07T12:16:05.611Z,5.80
2018-03-07T12:18:33.268Z,5.90
2018-03-07T12:21:00.847Z,5.90
2018-03-07T12:23:28.468Z,5.90
2018-03-07T12:25:56.038Z,5.90
2018-03-07T12:28:23.646Z,6.00
2018-03-07T12:30:51.214Z,6.10
2018-03-07T12:33:18.814Z,6.20
2018-03-07T12:35:46.430Z,6.20
2018-03-07T12:38:13.995Z,6.30
2018-03-07T12:40:41.569Z,6.50
2018-03-07T12:43:09.182Z,6.60
2018-03-07T12:45:36.758Z,6.60
2018-03-07T12:48:05.146Z,6.90
2018-03-07T12:50:33.478Z,7.10
2018-03-07T12:53:01.082Z,7.10
2018-03-07T12:55:28.658Z,7.40
2018-03-07T12:57:56.283Z,7.70
2018-03-07T13:00:23.873Z,8.00
2018-03-07T13:02:51.443Z,8.30
2018-03-07T13:05:19.048Z,8.40
2018-03-07T13:07:46.619Z,8.50
2018-03-07T13:10:14.244Z,8.50
2018-03-07T13:12:41.853Z,8.60
2018-03-07T13:15:09.436Z,8.60
2018-03-07T13:17:37.040Z,8.50
2018-03-07T13:20:04.654Z,8.40
2018-03-07T13:22:33.010Z,8.20
2018-03-07T13:25:00.602Z,8.20
2018-03-07T13:27:28.205Z,8.20
2018-03-07T13:29:55.779Z,8.00
2018-03-07T13:32:23.395Z,7.80
2018-03-07T13:34:50.972Z,7.60
2018-03-07T13:37:18.611Z,7.30
2018-03-07T13:39:46.562Z,7.20
2018-03-07T13:42:14.147Z,7.10
2018-03-07T13:44:41.818Z,7.20
2018-03-07T13:47:09.359Z,7.30
2018-03-07T13:49:37.704Z,7.50
2018-03-07T13:52:05.320Z,7.40
2018-03-07T13:54:32.936Z,7.50
2018-03-07T13:57:00.502Z,7.60
2018-03-07T13:59:28.131Z,7.60
2018-03-07T14:01:55.707Z,7.60
2018-03-07T14:04:23.281Z,7.70
2018-03-07T14:06:51.694Z,7.70
2018-03-07T14:09:19.322Z,7.70
2018-03-07T14:11:46.898Z,7.70
2018-03-07T14:14:15.271Z,7.70
2018-03-07T14:16:42.851Z,7.70
2018-03-07T14:19:11.258Z,7.70
2018-03-07T14:21:38.863Z,7.70
2018-03-07T14:24:06.491Z,7.70
2018-03-07T14:26:34.074Z,7.70
2018-03-07T14:29:01.711Z,7.60
2018-03-07T14:31:29.314Z,7.70
2018-03-07T14:33:56.934Z,7.60
2018-03-07T14:36:24.555Z,7.60
2018-03-07T14:38:52.890Z,7.60
2018-03-07T14:41:21.260Z,7.60
2018-03-07T14:43:48.844Z,7.60
2018-03-07T14:46:16.460Z,7.60
2018-03-07T14:48:44.061Z,7.60
2018-03-07T14:51:11.631Z,7.60
2018-03-07T14:53:39.249Z,7.60
2018-03-07T14:56:06.850Z,7.60
2018-03-07T14:58:34.420Z,7.60
2018-03-07T15:01:02.048Z,7.60
2018-03-07T15:03:29.818Z,7.60
2018-03-07T15:05:57.518Z,7.70
2018-03-07T15:08:25.916Z,7.70
2018-03-07T15:10:53.554Z,7.60
2018-03-07T15:13:21.118Z,7.70
2018-03-07T15:15:49.508Z,7.60
2018-03-07T15:18:17.887Z,7.60
2018-03-07T15:20:46.262Z,7.60
2018-03-07T15:23:14.600Z,7.60
2018-03-07T15:25:42.239Z,7.60
2018-03-07T15:28:09.807Z,7.60
2018-03-07T15:30:37.423Z,7.60
2018-03-07T15:33:05.812Z,7.60
2018-03-07T15:35:33.388Z,7.50
2018-03-07T15:38:01.003Z,7.50
2018-03-07T15:40:28.622Z,7.40
2018-03-07T15:42:56.206Z,7.30
2018-03-07T15:45:23.824Z,7.30
2018-03-07T15:47:52.154Z,7.30
2018-03-07T15:50:19.771Z,7.20
2018-03-07T15:52:47.342Z,7.30
2018-03-07T15:55:14.957Z,7.30
2018-03-07T15:57:42.540Z,7.20
2018-03-07T16:00:10.147Z,7.10
2018-03-07T16:02:37.715Z,7.10
2018-03-07T16:05:05.326Z,7.00
2018-03-07T16:07:33.661Z,6.80
2018-03-07T16:10:01.262Z,6.80
2018-03-07T16:12:29.642Z,6.60
2018-03-07T16:14:58.056Z,6.40
2018-03-07T16:17:25.682Z,6.40
2018-03-07T16:19:53.256Z,6.30
2018-03-07T16:22:21.642Z,6.10
2018-03-07T16:24:49.211Z,6.10
2018-03-07T16:27:16.773Z,6.00
2018-03-07T16:29:44.386Z,5.90
2018-03-07T16:32:11.954Z,5.90
2018-03-07T16:34:40.692Z,5.80
2018-03-07T16:37:08.324Z,5.70
2018-03-07T16:39:35.924Z,5.70
2018-03-07T16:42:03.500Z,5.60
2018-03-07T16:44:31.105Z,5.60
2018-03-07T16:46:59.439Z,5.40
2018-03-07T16:49:27.074Z,5.40
2018-03-07T16:51:54.651Z,5.30
2018-03-07T16:54:22.400Z,5.20
2018-03-07T16:56:50.014Z,5.10
2018-03-07T16:59:17.582Z,5.00
2018-03-07T17:01:45.199Z,4.90
2018-03-07T17:04:12.771Z,4.80
2018-03-07T17:06:40.388Z,4.70
2018-03-07T17:09:07.965Z,4.50
2018-03-07T17:11:35.581Z,4.40
2018-03-07T17:14:03.216Z,4.20
2018-03-07T17:16:30.796Z,4.10
2018-03-07T17:18:58.372Z,4.00
2018-03-07T17:21:26.751Z,3.80
2018-03-07T17:23:55.127Z,3.80
2018-03-07T17:26:22.704Z,3.80
2018-03-07T17:31:23.120Z,3.60
2018-03-07T17:33:50.738Z,3.50
2018-03-07T17:36:18.308Z,3.30
2018-03-07T17:38:45.914Z,3.20
2018-03-07T17:41:13.536Z,3.00
2018-03-07T17:43:41.111Z,2.90
2018-03-07T17:46:08.728Z,2.70
2018-03-07T17:48:36.298Z,2.50
2018-03-07T17:51:03.909Z,2.50
2018-03-07T17:53:31.490Z,2.40
2018-03-07T17:55:59.122Z,2.20
2018-03-07T17:58:26.759Z,2.00
2018-03-07T18:00:54.367Z,1.90
2018-03-07T18:03:21.987Z,1.80
2018-03-07T18:05:49.565Z,1.70
2018-03-07T18:08:17.145Z,1.60
2018-03-07T18:10:44.773Z,1.50
2018-03-07T18:13:12.352Z,1.50
2018-03-07T18:15:39.925Z,1.40
2018-03-07T18:18:07.562Z,1.40
2018-03-07T18:20:35.142Z,1.40
2018-03-07T18:23:02.770Z,1.40
2018-03-07T18:25:30.382Z,1.30
2018-03-07T18:27:58.028Z,1.20
2018-03-07T18:30:25.629Z,1.20
2018-03-07T18:32:53.284Z,1.10
2018-03-07T18:35:20.910Z,1.20
2018-03-07T18:37:48.592Z,1.40
2018-03-07T18:40:16.300Z,1.50
2018-03-07T18:42:44.115Z,1.70
2018-03-07T18:45:11.722Z,1.90
2018-03-07T18:47:39.345Z,2.00
2018-03-07T18:50:07.052Z,2.10
2018-03-07T18:52:34.697Z,2.20
2018-03-07T18:55:02.344Z,2.30
2018-03-07T18:57:29.933Z,2.40
2018-03-07T18:59:57.595Z,2.40
2018-03-07T19:02:25.181Z,2.50
2018-03-07T19:04:53.671Z,2.60
2018-03-07T19:07:21.251Z,2.70
2018-03-07T19:09:48.936Z,2.80
2018-03-07T19:12:16.630Z,2.90
2018-03-07T19:14:44.272Z,2.90
2018-03-07T19:17:11.842Z,2.90
2018-03-07T19:19:39.463Z,2.90
2018-03-07T19:22:07.061Z,2.80
2018-03-07T19:24:34.647Z,2.70
2018-03-07T19:27:02.266Z,2.70
2018-03-07T19:29:29.835Z,2.70
2018-03-07T19:31:58.179Z,2.70
2018-03-07T19:34:26.400Z,2.70
2018-03-07T19:36:54.006Z,2.70
2018-03-07T19:39:21.591Z,2.80
2018-03-07T19:41:49.212Z,2.80
2018-03-07T19:44:16.858Z,2.80
2018-03-07T19:46:44.428Z,2.80
2018-03-07T19:49:12.064Z,2.70
2018-03-07T19:51:39.636Z,2.60
2018-03-07T19:54:07.247Z,2.50
2018-03-07T19:56:34.852Z,2.50
2018-03-07T19:59:02.435Z,2.40
2018-03-07T20:01:30.046Z,2.30
2018-03-07T20:03:57.619Z,2.20
2018-03-07T20:06:25.230Z,2.10
2018-03-07T20:08:52.847Z,2.00
2018-03-07T20:11:20.422Z,2.00
2018-03-07T20:13:47.995Z,1.90
2018-03-07T20:16:15.609Z,1.80
2018-03-07T20:18:43.179Z,1.80
2018-03-07T20:21:10.793Z,1.80
2018-03-07T20:23:38.402Z,1.80
2018-03-07T20:26:06.044Z,1.90
2018-03-07T20:28:33.640Z,1.90
2018-03-07T20:31:02.100Z,2.00
2018-03-07T20:33:29.944Z,1.90
2018-03-07T20:35:57.512Z,2.00
2018-03-07T20:38:25.127Z,2.10
2018-03-07T20:40:52.749Z,2.20
2018-03-07T20:43:20.368Z,2.20
2018-03-07T20:45:48.268Z,2.30
2018-03-07T20:48:15.866Z,2.40
2018-03-07T20:50:43.492Z,2.40
2018-03-07T20:53:11.107Z,2.40
2018-03-07T20:55:38.679Z,2.50
2018-03-07T20:58:06.374Z,2.50
2018-03-07T21:00:33.991Z,2.50
2018-03-07T21:03:01.558Z,2.50
2018-03-07T21:05:29.163Z,2.50
2018-03-07T21:07:56.871Z,2.50
2018-03-07T21:10:24.495Z,2.50
2018-03-07T21:12:52.071Z,2.50
2018-03-07T21:15:20.525Z,2.60
2018-03-07T21:17:48.143Z,2.50
2018-03-07T21:20:15.716Z,2.60
2018-03-07T21:22:44.988Z,2.60
2018-03-07T21:25:12.656Z,2.50
2018-03-07T21:27:40.273Z,2.50
2018-03-07T21:30:07.888Z,2.40
2018-03-07T21:32:35.598Z,2.40
2018-03-07T21:35:03.198Z,2.30
2018-03-07T21:37:33.801Z,2.20
2018-03-07T21:40:01.728Z,2.20
2018-03-07T21:42:29.335Z,2.10
2018-03-07T21:44:56.968Z,2.10
2018-03-07T21:47:24.748Z,2.10
2018-03-07T21:49:52.356Z,2.00
2018-03-07T21:52:21.701Z,2.00
2018-03-07T21:54:49.597Z,2.00
2018-03-07T21:57:18.148Z,2.00
2018-03-07T21:59:45.743Z,2.00
2018-03-07T22:02:14.124Z,1.90
2018-03-07T22:04:42.585Z,1.90
2018-03-07T22:07:10.220Z,1.80
2018-03-07T22:09:37.803Z,1.90
2018-03-07T22:12:05.605Z,1.90
2018-03-07T22:14:33.335Z,1.90
2018-03-07T22:17:01.195Z,1.90
2018-03-07T22:19:28.894Z,1.80
2018-03-07T22:21:56.532Z,1.80
2018-03-07T22:24:24.161Z,1.80
2018-03-07T22:26:51.753Z,1.80
2018-03-07T22:29:19.362Z,1.80
2018-03-07T22:31:46.946Z,1.80
2018-03-07T22:34:14.562Z,1.80
2018-03-07T22:36:42.176Z,1.80
2018-03-07T22:39:11.530Z,1.80
2018-03-07T22:41:40.270Z,1.80
2018-03-07T22:44:09.099Z,1.70
2018-03-07T22:46:36.671Z,1.80
2018-03-07T22:49:05.820Z,1.80
2018-03-07T22:51:33.653Z,1.80
2018-03-07T22:54:01.258Z,1.80
2018-03-07T22:56:28.880Z,1.80
2018-03-07T22:58:56.554Z,1.70
2018-03-07T23:01:24.456Z,1.70
2018-03-07T23:03:52.825Z,1.70
2018-03-07T23:06:20.430Z,1.60
2018-03-07T23:08:48.079Z,1.60
2018-03-07T23:11:15.647Z,1.60
2018-03-07T23:13:43.308Z,1.60
2018-03-07T23:16:11.682Z,1.60
2018-03-07T23:18:40.035Z,1.60
2018-03-07T23:21:07.652Z,1.60
2018-03-07T23:23:35.232Z,1.60
2018-03-07T23:26:02.808Z,1.60
2018-03-07T23:28:30.423Z,1.60
2018-03-07T23:30:58.761Z,1.60
2018-03-07T23:33:26.381Z,1.60
2018-03-07T23:35:53.999Z,1.60
2018-03-07T23:38:21.590Z,1.60
2018-03-07T23:40:49.220Z,1.60
2018-03-07T23:43:16.847Z,1.70
2018-03-07T23:45:44.458Z,1.70
2018-03-07T23:48:12.098Z,1.70
2018-03-07T23:50:39.715Z,1.70
2018-03-07T23:53:07.364Z,1.70
2018-03-07T23:55:34.939Z,1.70
2018-03-07T23:58:02.538Z,1.70
